Aérodrome :
LOGIN :

S'inscrire | Disclaimer

   EN    FR    IT 

 










Légende :    VFR   VFR Marginal   IFR   IFR Intensif   IFR Très Intensif
Visi : 
Plafond : 
>= 8 km
>= 3000ft
5 à 8 km
1000 à 3000 ft
1500m à 5 km
500 à 1000 ft
800 à 1500m
200 à 500 ft
< 800m
< 200 ft
Symboles :   Orages  Brouillard  Fortes neiges  Fortes précipitations  Vent > 20 kt
SIGMETs :   Divers  Orages  Givrage  Turbulence  Onde Orograph.  Cendres Volcan.







- Altitude de l'aérodrome : 290 ft
- Code IATA : LAI
- Voir les cartes d'approche


LFRO - Lannion

DERNIER METAR :
  • 200700Z AUTO 19007KT 9999 FEW014 17/14 Q1015 BECMG 20019G30KT

METARs EXPIRÉS :
  • 200630Z AUTO 18006KT 9999 FEW018 16/14 Q1015 BECMG 20019G30KT
  • 200600Z AUTO 20005KT 9999 FEW018 SCT240 16/14 Q1016 TEMPO BKN009
  • 200530Z AUTO 20006KT 9999 SCT019 SCT240 16/14 Q1016 TEMPO BKN009
  • 200500Z AUTO 20008KT 9999 SCT020 16/14 Q1016

TAF TAF LFRO
Valide du 20 à 06h jusqu'au 21 à 06h UTC


200500Z 2006/2106 21010KT 9999 SCT016
TEMPO 2006/2007 BKN009
BECMG 2008/2010 20019G30KT
TEMPO 2020/2102 4000 RADZ OVC005
TEMPO 2022/2102 21023G35KT
BECMG 2102/2105 29017KT
Pas de NOTAMs connus pour ce terrain.



MET'MAP, la Météo Aéronautique d'un coup d'oeil ! - Copyright ORBIFLY Décembre 2007 - Disclaimer

ORBIFLY MET'MAP TEAM :

Programmation & Développement : Alexandra Zaïnal
Conception & Développement : Baudouin d'Aumeries
Co-Programmation & Développement : Marc-Olivier Méhu
Soutien technique & logistique : Manuel Goepfert

Contact : metmap@orbifly.com




SOURCES & CREDITS :

   NOAA